sensor_id;sensor_type;location;lat;lon;timestamp;P1;durP1;ratioP1;P2;durP2;ratioP2
62709;SDS011;48770;51.624;5.886;2022-08-05T00:01:37;1.17;;;0.90;;
62709;SDS011;48770;51.624;5.886;2022-08-05T00:04:02;2.67;;;0.90;;
62709;SDS011;48770;51.624;5.886;2022-08-05T00:06:28;1.70;;;0.80;;
62709;SDS011;48770;51.624;5.886;2022-08-05T00:08:53;1.63;;;0.80;;
62709;SDS011;48770;51.624;5.886;2022-08-05T00:11:19;1.73;;;1.08;;
62709;SDS011;48770;51.624;5.886;2022-08-05T00:13:45;1.95;;;0.85;;
62709;SDS011;48770;51.624;5.886;2022-08-05T00:16:12;1.70;;;0.90;;
62709;SDS011;48770;51.624;5.886;2022-08-05T00:18:39;2.08;;;1.05;;
62709;SDS011;48770;51.624;5.886;2022-08-05T00:21:06;2.15;;;0.80;;
62709;SDS011;48770;51.624;5.886;2022-08-05T00:23:32;2.53;;;1.10;;
62709;SDS011;48770;51.624;5.886;2022-08-05T00:25:57;1.65;;;0.88;;
62709;SDS011;48770;51.624;5.886;2022-08-05T00:28:22;1.92;;;1.08;;
62709;SDS011;48770;51.624;5.886;2022-08-05T00:30:48;1.50;;;0.90;;
62709;SDS011;48770;51.624;5.886;2022-08-05T00:33:15;1.38;;;0.90;;
62709;SDS011;48770;51.624;5.886;2022-08-05T00:35:40;1.83;;;0.98;;
62709;SDS011;48770;51.624;5.886;2022-08-05T00:38:06;1.17;;;0.77;;
62709;SDS011;48770;51.624;5.886;2022-08-05T00:40:31;1.48;;;0.90;;
62709;SDS011;48770;51.624;5.886;2022-08-05T00:42:58;1.77;;;0.70;;
62709;SDS011;48770;51.624;5.886;2022-08-05T00:45:25;1.70;;;0.93;;
62709;SDS011;48770;51.624;5.886;2022-08-05T00:47:51;2.60;;;1.35;;
62709;SDS011;48770;51.624;5.886;2022-08-05T00:50:16;1.52;;;0.90;;
62709;SDS011;48770;51.624;5.886;2022-08-05T00:52:42;1.42;;;0.93;;
62709;SDS011;48770;51.624;5.886;2022-08-05T00:55:07;1.70;;;1.08;;
62709;SDS011;48770;51.624;5.886;2022-08-05T00:57:33;1.98;;;0.90;;
62709;SDS011;48770;51.624;5.886;2022-08-05T00:59:58;2.25;;;0.70;;
62709;SDS011;48770;51.624;5.886;2022-08-05T01:02:23;1.50;;;0.83;;
62709;SDS011;48770;51.624;5.886;2022-08-05T01:04:48;5.63;;;1.30;;
62709;SDS011;48770;51.624;5.886;2022-08-05T01:07:14;3.05;;;0.95;;
62709;SDS011;48770;51.624;5.886;2022-08-05T01:09:39;2.28;;;1.10;;
62709;SDS011;48770;51.624;5.886;2022-08-05T01:12:06;2.35;;;1.10;;
62709;SDS011;48770;51.624;5.886;2022-08-05T01:17:29;1.35;;;0.80;;
62709;SDS011;48770;51.624;5.886;2022-08-05T01:20:10;2.00;;;0.98;;
62709;SDS011;48770;51.624;5.886;2022-08-05T01:29:03;1.88;;;1.10;;
62709;SDS011;48770;51.624;5.886;2022-08-05T01:31:40;1.17;;;0.90;;
62709;SDS011;48770;51.624;5.886;2022-08-05T01:34:11;1.52;;;0.88;;
62709;SDS011;48770;51.624;5.886;2022-08-05T01:39:11;1.73;;;0.90;;
62709;SDS011;48770;51.624;5.886;2022-08-05T01:41:38;1.30;;;1.00;;
62709;SDS011;48770;51.624;5.886;2022-08-05T01:44:07;1.83;;;1.00;;
62709;SDS011;48770;51.624;5.886;2022-08-05T01:46:34;2.10;;;1.10;;
62709;SDS011;48770;51.624;5.886;2022-08-05T01:49:00;1.50;;;0.70;;
62709;SDS011;48770;51.624;5.886;2022-08-05T01:51:29;0.95;;;0.85;;
62709;SDS011;48770;51.624;5.886;2022-08-05T01:53:57;1.13;;;0.75;;
62709;SDS011;48770;51.624;5.886;2022-08-05T01:56:31;0.85;;;0.75;;
62709;SDS011;48770;51.624;5.886;2022-08-05T01:58:59;1.17;;;0.82;;
62709;SDS011;48770;51.624;5.886;2022-08-05T02:01:28;2.95;;;0.90;;
62709;SDS011;48770;51.624;5.886;2022-08-05T02:03:56;3.92;;;0.90;;
62709;SDS011;48770;51.624;5.886;2022-08-05T02:06:23;1.75;;;0.95;;
62709;SDS011;48770;51.624;5.886;2022-08-05T02:08:49;1.83;;;0.80;;
62709;SDS011;48770;51.624;5.886;2022-08-05T02:11:15;1.00;;;0.90;;
62709;SDS011;48770;51.624;5.886;2022-08-05T02:16:33;1.27;;;0.85;;
62709;SDS011;48770;51.624;5.886;2022-08-05T02:22:04;2.08;;;1.00;;
62709;SDS011;48770;51.624;5.886;2022-08-05T02:24:36;2.53;;;0.98;;
62709;SDS011;48770;51.624;5.886;2022-08-05T02:27:03;2.15;;;1.00;;
62709;SDS011;48770;51.624;5.886;2022-08-05T02:29:30;2.05;;;0.98;;
62709;SDS011;48770;51.624;5.886;2022-08-05T02:31:59;3.45;;;0.95;;
62709;SDS011;48770;51.624;5.886;2022-08-05T02:34:27;1.67;;;0.80;;
62709;SDS011;48770;51.624;5.886;2022-08-05T02:36:56;3.28;;;1.02;;
62709;SDS011;48770;51.624;5.886;2022-08-05T02:39:23;2.35;;;1.33;;
62709;SDS011;48770;51.624;5.886;2022-08-05T02:41:52;1.00;;;0.90;;
62709;SDS011;48770;51.624;5.886;2022-08-05T02:44:19;1.77;;;0.80;;
62709;SDS011;48770;51.624;5.886;2022-08-05T02:50:09;2.00;;;0.98;;
62709;SDS011;48770;51.624;5.886;2022-08-05T02:52:37;1.83;;;1.30;;
62709;SDS011;48770;51.624;5.886;2022-08-05T02:55:05;1.83;;;1.00;;
62709;SDS011;48770;51.624;5.886;2022-08-05T02:57:32;4.20;;;0.90;;
62709;SDS011;48770;51.624;5.886;2022-08-05T02:59:58;2.38;;;0.80;;
62709;SDS011;48770;51.624;5.886;2022-08-05T03:02:27;2.15;;;0.90;;
62709;SDS011;48770;51.624;5.886;2022-08-05T03:04:56;1.90;;;0.90;;
62709;SDS011;48770;51.624;5.886;2022-08-05T03:07:23;2.28;;;1.15;;
62709;SDS011;48770;51.624;5.886;2022-08-05T03:09:50;1.23;;;0.90;;
62709;SDS011;48770;51.624;5.886;2022-08-05T03:15:14;2.67;;;0.98;;
62709;SDS011;48770;51.624;5.886;2022-08-05T03:17:39;2.00;;;0.90;;
62709;SDS011;48770;51.624;5.886;2022-08-05T03:20:05;2.03;;;0.95;;
62709;SDS011;48770;51.624;5.886;2022-08-05T03:22:30;2.15;;;1.05;;
62709;SDS011;48770;51.624;5.886;2022-08-05T03:24:56;1.65;;;1.00;;
62709;SDS011;48770;51.624;5.886;2022-08-05T03:27:22;2.13;;;1.10;;
62709;SDS011;48770;51.624;5.886;2022-08-05T03:29:48;1.45;;;0.90;;
62709;SDS011;48770;51.624;5.886;2022-08-05T03:32:14;2.88;;;0.93;;
62709;SDS011;48770;51.624;5.886;2022-08-05T03:34:40;1.67;;;0.90;;
62709;SDS011;48770;51.624;5.886;2022-08-05T03:37:06;3.80;;;1.00;;
62709;SDS011;48770;51.624;5.886;2022-08-05T03:39:31;4.07;;;1.25;;
62709;SDS011;48770;51.624;5.886;2022-08-05T03:41:57;1.92;;;1.17;;
62709;SDS011;48770;51.624;5.886;2022-08-05T03:44:23;3.08;;;1.30;;
62709;SDS011;48770;51.624;5.886;2022-08-05T03:46:48;1.35;;;0.95;;
62709;SDS011;48770;51.624;5.886;2022-08-05T03:49:14;1.75;;;1.00;;
62709;SDS011;48770;51.624;5.886;2022-08-05T03:51:41;2.60;;;1.00;;
62709;SDS011;48770;51.624;5.886;2022-08-05T03:54:49;3.42;;;1.50;;
62709;SDS011;48770;51.624;5.886;2022-08-05T03:57:06;2.30;;;0.95;;
62709;SDS011;48770;51.624;5.886;2022-08-05T03:59:39;1.27;;;0.95;;
62709;SDS011;48770;51.624;5.886;2022-08-05T04:02:07;1.90;;;1.10;;
62709;SDS011;48770;51.624;5.886;2022-08-05T04:04:35;1.85;;;0.98;;
62709;SDS011;48770;51.624;5.886;2022-08-05T04:07:01;2.42;;;0.90;;
62709;SDS011;48770;51.624;5.886;2022-08-05T04:09:28;2.78;;;1.33;;
62709;SDS011;48770;51.624;5.886;2022-08-05T04:11:54;3.03;;;0.90;;
62709;SDS011;48770;51.624;5.886;2022-08-05T04:14:20;1.83;;;1.25;;
62709;SDS011;48770;51.624;5.886;2022-08-05T04:16:46;1.65;;;1.05;;
62709;SDS011;48770;51.624;5.886;2022-08-05T04:19:11;1.92;;;0.80;;
62709;SDS011;48770;51.624;5.886;2022-08-05T04:21:37;1.60;;;0.98;;
62709;SDS011;48770;51.624;5.886;2022-08-05T04:24:03;1.10;;;0.90;;
62709;SDS011;48770;51.624;5.886;2022-08-05T04:26:29;1.60;;;0.70;;
62709;SDS011;48770;51.624;5.886;2022-08-05T04:28:55;2.15;;;0.85;;
62709;SDS011;48770;51.624;5.886;2022-08-05T04:31:20;1.73;;;0.80;;
62709;SDS011;48770;51.624;5.886;2022-08-05T04:33:46;2.03;;;1.05;;
62709;SDS011;48770;51.624;5.886;2022-08-05T04:36:11;2.50;;;1.00;;
62709;SDS011;48770;51.624;5.886;2022-08-05T04:38:39;2.17;;;0.98;;
62709;SDS011;48770;51.624;5.886;2022-08-05T04:41:04;2.03;;;0.90;;
62709;SDS011;48770;51.624;5.886;2022-08-05T04:43:29;3.13;;;1.17;;
62709;SDS011;48770;51.624;5.886;2022-08-05T04:45:54;2.13;;;1.08;;
62709;SDS011;48770;51.624;5.886;2022-08-05T04:48:20;3.47;;;0.88;;
62709;SDS011;48770;51.624;5.886;2022-08-05T04:50:47;2.70;;;1.05;;
62709;SDS011;48770;51.624;5.886;2022-08-05T04:53:13;2.13;;;1.15;;
62709;SDS011;48770;51.624;5.886;2022-08-05T04:55:40;3.05;;;1.27;;
62709;SDS011;48770;51.624;5.886;2022-08-05T04:58:06;2.53;;;1.42;;
62709;SDS011;48770;51.624;5.886;2022-08-05T05:00:33;2.63;;;1.05;;
62709;SDS011;48770;51.624;5.886;2022-08-05T05:02:59;2.33;;;1.17;;
62709;SDS011;48770;51.624;5.886;2022-08-05T05:05:26;2.10;;;0.93;;
62709;SDS011;48770;51.624;5.886;2022-08-05T05:07:52;3.08;;;0.98;;
62709;SDS011;48770;51.624;5.886;2022-08-05T05:10:18;2.25;;;1.02;;
62709;SDS011;48770;51.624;5.886;2022-08-05T05:12:43;1.38;;;0.85;;
62709;SDS011;48770;51.624;5.886;2022-08-05T05:15:08;2.65;;;1.00;;
62709;SDS011;48770;51.624;5.886;2022-08-05T05:17:38;2.70;;;1.10;;
62709;SDS011;48770;51.624;5.886;2022-08-05T05:20:05;1.60;;;0.70;;
62709;SDS011;48770;51.624;5.886;2022-08-05T05:22:32;1.67;;;1.00;;
62709;SDS011;48770;51.624;5.886;2022-08-05T05:24:58;3.30;;;1.20;;
62709;SDS011;48770;51.624;5.886;2022-08-05T05:27:23;2.25;;;1.05;;
62709;SDS011;48770;51.624;5.886;2022-08-05T05:29:48;3.20;;;1.20;;
62709;SDS011;48770;51.624;5.886;2022-08-05T05:32:14;2.38;;;1.00;;
62709;SDS011;48770;51.624;5.886;2022-08-05T05:34:39;3.55;;;1.13;;
62709;SDS011;48770;51.624;5.886;2022-08-05T05:37:04;1.75;;;0.80;;
62709;SDS011;48770;51.624;5.886;2022-08-05T05:39:30;1.83;;;0.82;;
62709;SDS011;48770;51.624;5.886;2022-08-05T05:41:55;1.73;;;0.90;;
62709;SDS011;48770;51.624;5.886;2022-08-05T05:44:20;2.97;;;1.20;;
62709;SDS011;48770;51.624;5.886;2022-08-05T05:46:46;2.88;;;1.17;;
62709;SDS011;48770;51.624;5.886;2022-08-05T05:49:11;3.65;;;1.10;;
62709;SDS011;48770;51.624;5.886;2022-08-05T05:51:36;2.78;;;1.02;;
62709;SDS011;48770;51.624;5.886;2022-08-05T05:54:02;1.67;;;0.85;;
62709;SDS011;48770;51.624;5.886;2022-08-05T05:56:30;1.67;;;0.93;;
62709;SDS011;48770;51.624;5.886;2022-08-05T05:58:56;2.65;;;0.90;;
62709;SDS011;48770;51.624;5.886;2022-08-05T06:01:21;1.48;;;0.90;;
62709;SDS011;48770;51.624;5.886;2022-08-05T06:03:46;2.00;;;0.87;;
62709;SDS011;48770;51.624;5.886;2022-08-05T06:06:11;2.87;;;1.07;;
62709;SDS011;48770;51.624;5.886;2022-08-05T06:08:37;2.55;;;0.98;;
62709;SDS011;48770;51.624;5.886;2022-08-05T06:11:02;1.95;;;1.00;;
62709;SDS011;48770;51.624;5.886;2022-08-05T06:13:28;3.80;;;1.20;;
62709;SDS011;48770;51.624;5.886;2022-08-05T06:15:53;5.15;;;1.10;;
62709;SDS011;48770;51.624;5.886;2022-08-05T06:18:19;3.40;;;1.20;;
62709;SDS011;48770;51.624;5.886;2022-08-05T06:20:44;1.63;;;1.10;;
62709;SDS011;48770;51.624;5.886;2022-08-05T06:23:09;3.83;;;1.20;;
62709;SDS011;48770;51.624;5.886;2022-08-05T06:25:34;4.68;;;1.30;;
62709;SDS011;48770;51.624;5.886;2022-08-05T06:28:00;3.53;;;1.33;;
62709;SDS011;48770;51.624;5.886;2022-08-05T06:30:25;5.97;;;1.30;;
62709;SDS011;48770;51.624;5.886;2022-08-05T06:32:51;8.25;;;1.50;;
62709;SDS011;48770;51.624;5.886;2022-08-05T06:35:17;5.90;;;1.33;;
62709;SDS011;48770;51.624;5.886;2022-08-05T06:37:44;3.03;;;1.10;;
62709;SDS011;48770;51.624;5.886;2022-08-05T06:40:09;3.40;;;1.23;;
62709;SDS011;48770;51.624;5.886;2022-08-05T06:42:35;2.90;;;1.27;;
62709;SDS011;48770;51.624;5.886;2022-08-05T06:45:01;5.43;;;1.45;;
62709;SDS011;48770;51.624;5.886;2022-08-05T06:47:27;8.13;;;1.50;;
62709;SDS011;48770;51.624;5.886;2022-08-05T06:49:52;4.10;;;1.33;;
62709;SDS011;48770;51.624;5.886;2022-08-05T06:52:17;7.20;;;1.20;;
62709;SDS011;48770;51.624;5.886;2022-08-05T06:54:43;3.67;;;1.20;;
62709;SDS011;48770;51.624;5.886;2022-08-05T06:57:08;4.50;;;1.30;;
62709;SDS011;48770;51.624;5.886;2022-08-05T06:59:37;3.25;;;1.20;;
62709;SDS011;48770;51.624;5.886;2022-08-05T07:02:02;4.57;;;1.25;;
62709;SDS011;48770;51.624;5.886;2022-08-05T07:04:27;3.42;;;0.93;;
62709;SDS011;48770;51.624;5.886;2022-08-05T07:06:53;5.10;;;1.20;;
62709;SDS011;48770;51.624;5.886;2022-08-05T07:09:18;2.03;;;1.00;;
62709;SDS011;48770;51.624;5.886;2022-08-05T07:11:43;3.50;;;1.45;;
62709;SDS011;48770;51.624;5.886;2022-08-05T07:14:09;1.92;;;0.95;;
62709;SDS011;48770;51.624;5.886;2022-08-05T07:16:52;2.80;;;1.00;;
62709;SDS011;48770;51.624;5.886;2022-08-05T07:19:23;3.65;;;1.20;;
62709;SDS011;48770;51.624;5.886;2022-08-05T07:21:49;2.42;;;1.13;;
62709;SDS011;48770;51.624;5.886;2022-08-05T07:24:15;1.83;;;1.08;;
62709;SDS011;48770;51.624;5.886;2022-08-05T07:26:41;2.42;;;0.90;;
62709;SDS011;48770;51.624;5.886;2022-08-05T07:29:08;4.50;;;1.23;;
62709;SDS011;48770;51.624;5.886;2022-08-05T07:31:33;3.00;;;1.23;;
62709;SDS011;48770;51.624;5.886;2022-08-05T07:33:59;1.73;;;1.00;;
62709;SDS011;48770;51.624;5.886;2022-08-05T07:36:24;2.08;;;1.10;;
62709;SDS011;48770;51.624;5.886;2022-08-05T07:38:50;2.38;;;1.02;;
62709;SDS011;48770;51.624;5.886;2022-08-05T07:41:16;3.05;;;1.30;;
62709;SDS011;48770;51.624;5.886;2022-08-05T07:43:43;2.42;;;1.17;;
62709;SDS011;48770;51.624;5.886;2022-08-05T07:46:09;3.53;;;1.30;;
62709;SDS011;48770;51.624;5.886;2022-08-05T07:48:34;3.03;;;1.00;;
62709;SDS011;48770;51.624;5.886;2022-08-05T07:50:59;3.05;;;1.17;;
62709;SDS011;48770;51.624;5.886;2022-08-05T07:53:25;3.53;;;1.15;;
62709;SDS011;48770;51.624;5.886;2022-08-05T07:55:50;2.85;;;1.20;;
62709;SDS011;48770;51.624;5.886;2022-08-05T07:58:16;2.17;;;0.95;;
62709;SDS011;48770;51.624;5.886;2022-08-05T08:00:42;2.13;;;1.02;;
62709;SDS011;48770;51.624;5.886;2022-08-05T08:03:11;3.72;;;1.58;;
62709;SDS011;48770;51.624;5.886;2022-08-05T08:05:39;2.65;;;0.90;;
62709;SDS011;48770;51.624;5.886;2022-08-05T08:08:07;2.83;;;1.30;;
62709;SDS011;48770;51.624;5.886;2022-08-05T08:10:33;2.15;;;1.00;;
62709;SDS011;48770;51.624;5.886;2022-08-05T08:12:58;3.07;;;1.00;;
62709;SDS011;48770;51.624;5.886;2022-08-05T08:15:23;3.00;;;1.17;;
62709;SDS011;48770;51.624;5.886;2022-08-05T08:17:48;1.85;;;0.75;;
62709;SDS011;48770;51.624;5.886;2022-08-05T08:20:14;2.00;;;0.95;;
62709;SDS011;48770;51.624;5.886;2022-08-05T08:22:39;1.27;;;0.90;;
62709;SDS011;48770;51.624;5.886;2022-08-05T08:25:04;3.03;;;0.87;;
62709;SDS011;48770;51.624;5.886;2022-08-05T08:27:30;1.40;;;0.70;;
62709;SDS011;48770;51.624;5.886;2022-08-05T08:29:57;1.77;;;0.90;;
62709;SDS011;48770;51.624;5.886;2022-08-05T08:32:22;2.47;;;1.08;;
62709;SDS011;48770;51.624;5.886;2022-08-05T08:34:48;3.58;;;1.15;;
62709;SDS011;48770;51.624;5.886;2022-08-05T08:37:14;2.38;;;0.90;;
62709;SDS011;48770;51.624;5.886;2022-08-05T08:39:41;2.90;;;1.10;;
62709;SDS011;48770;51.624;5.886;2022-08-05T08:42:07;1.48;;;1.00;;
62709;SDS011;48770;51.624;5.886;2022-08-05T08:44:33;1.65;;;0.90;;
62709;SDS011;48770;51.624;5.886;2022-08-05T08:47:03;2.13;;;1.08;;
62709;SDS011;48770;51.624;5.886;2022-08-05T08:49:32;2.95;;;1.40;;
62709;SDS011;48770;51.624;5.886;2022-08-05T08:52:22;2.55;;;1.10;;
62709;SDS011;48770;51.624;5.886;2022-08-05T08:54:50;5.22;;;1.10;;
62709;SDS011;48770;51.624;5.886;2022-08-05T08:57:17;1.80;;;1.00;;
62709;SDS011;48770;51.624;5.886;2022-08-05T08:59:43;2.90;;;1.65;;
62709;SDS011;48770;51.624;5.886;2022-08-05T09:02:08;2.15;;;1.10;;
62709;SDS011;48770;51.624;5.886;2022-08-05T09:04:35;2.63;;;1.10;;
62709;SDS011;48770;51.624;5.886;2022-08-05T09:07:02;1.90;;;0.90;;
62709;SDS011;48770;51.624;5.886;2022-08-05T09:09:29;3.30;;;1.25;;
62709;SDS011;48770;51.624;5.886;2022-08-05T09:11:55;1.42;;;0.80;;
62709;SDS011;48770;51.624;5.886;2022-08-05T09:14:21;4.32;;;1.00;;
62709;SDS011;48770;51.624;5.886;2022-08-05T09:16:47;4.53;;;0.85;;
62709;SDS011;48770;51.624;5.886;2022-08-05T09:19:12;1.13;;;0.90;;
62709;SDS011;48770;51.624;5.886;2022-08-05T09:21:37;1.90;;;0.93;;
62709;SDS011;48770;51.624;5.886;2022-08-05T09:24:03;1.42;;;0.80;;
62709;SDS011;48770;51.624;5.886;2022-08-05T09:26:32;1.98;;;0.90;;
62709;SDS011;48770;51.624;5.886;2022-08-05T09:29:02;1.63;;;0.80;;
62709;SDS011;48770;51.624;5.886;2022-08-05T09:31:29;1.45;;;0.75;;
62709;SDS011;48770;51.624;5.886;2022-08-05T09:33:56;0.93;;;0.57;;
62709;SDS011;48770;51.624;5.886;2022-08-05T09:36:37;1.23;;;0.70;;
62709;SDS011;48770;51.624;5.886;2022-08-05T09:39:17;2.08;;;1.00;;
62709;SDS011;48770;51.624;5.886;2022-08-05T09:41:56;1.23;;;0.75;;
62709;SDS011;48770;51.624;5.886;2022-08-05T09:44:36;1.17;;;0.65;;
62709;SDS011;48770;51.624;5.886;2022-08-05T09:49:50;4.15;;;0.80;;
62709;SDS011;48770;51.624;5.886;2022-08-05T09:54:57;1.88;;;0.90;;
62709;SDS011;48770;51.624;5.886;2022-08-05T10:00:05;2.15;;;0.95;;
62709;SDS011;48770;51.624;5.886;2022-08-05T10:02:37;2.03;;;1.00;;
62709;SDS011;48770;51.624;5.886;2022-08-05T10:05:06;2.58;;;1.10;;
62709;SDS011;48770;51.624;5.886;2022-08-05T10:13:08;1.63;;;0.70;;
62709;SDS011;48770;51.624;5.886;2022-08-05T10:15:34;2.38;;;0.95;;
62709;SDS011;48770;51.624;5.886;2022-08-05T10:18:04;2.20;;;1.13;;
62709;SDS011;48770;51.624;5.886;2022-08-05T10:20:33;1.50;;;0.75;;
62709;SDS011;48770;51.624;5.886;2022-08-05T10:23:00;1.90;;;0.77;;
62709;SDS011;48770;51.624;5.886;2022-08-05T10:25:26;2.95;;;0.70;;
62709;SDS011;48770;51.624;5.886;2022-08-05T10:27:52;1.52;;;0.50;;
62709;SDS011;48770;51.624;5.886;2022-08-05T10:30:18;1.80;;;1.10;;
62709;SDS011;48770;51.624;5.886;2022-08-05T10:32:44;1.48;;;0.70;;
62709;SDS011;48770;51.624;5.886;2022-08-05T10:35:11;1.10;;;0.60;;
62709;SDS011;48770;51.624;5.886;2022-08-05T10:37:37;2.33;;;0.80;;
62709;SDS011;48770;51.624;5.886;2022-08-05T10:40:04;1.33;;;0.80;;
62709;SDS011;48770;51.624;5.886;2022-08-05T10:42:34;1.80;;;0.50;;
62709;SDS011;48770;51.624;5.886;2022-08-05T10:45:05;1.38;;;0.60;;
62709;SDS011;48770;51.624;5.886;2022-08-05T10:47:31;2.63;;;0.60;;
62709;SDS011;48770;51.624;5.886;2022-08-05T10:52:42;1.15;;;0.65;;
62709;SDS011;48770;51.624;5.886;2022-08-05T10:55:11;1.58;;;0.70;;
62709;SDS011;48770;51.624;5.886;2022-08-05T10:57:38;0.50;;;0.50;;
62709;SDS011;48770;51.624;5.886;2022-08-05T11:02:34;0.90;;;0.50;;
62709;SDS011;48770;51.624;5.886;2022-08-05T11:05:03;1.10;;;0.60;;
62709;SDS011;48770;51.624;5.886;2022-08-05T11:07:30;1.85;;;0.82;;
62709;SDS011;48770;51.624;5.886;2022-08-05T11:09:55;1.05;;;0.50;;
62709;SDS011;48770;51.624;5.886;2022-08-05T11:17:41;2.03;;;0.70;;
62709;SDS011;48770;51.624;5.886;2022-08-05T11:23:14;0.68;;;0.40;;
62709;SDS011;48770;51.624;5.886;2022-08-05T11:26:08;1.30;;;0.57;;
62709;SDS011;48770;51.624;5.886;2022-08-05T11:28:38;0.73;;;0.43;;
62709;SDS011;48770;51.624;5.886;2022-08-05T11:36:08;2.03;;;0.60;;
62709;SDS011;48770;51.624;5.886;2022-08-05T11:41:07;0.75;;;0.40;;
62709;SDS011;48770;51.624;5.886;2022-08-05T11:43:35;0.77;;;0.50;;
62709;SDS011;48770;51.624;5.886;2022-08-05T11:46:01;1.88;;;0.60;;
62709;SDS011;48770;51.624;5.886;2022-08-05T11:48:27;1.13;;;0.60;;
62709;SDS011;48770;51.624;5.886;2022-08-05T11:50:53;1.48;;;0.50;;
62709;SDS011;48770;51.624;5.886;2022-08-05T11:53:19;0.82;;;0.40;;
62709;SDS011;48770;51.624;5.886;2022-08-05T11:55:56;1.52;;;0.40;;
62709;SDS011;48770;51.624;5.886;2022-08-05T11:58:29;1.13;;;0.50;;
62709;SDS011;48770;51.624;5.886;2022-08-05T12:01:07;0.70;;;0.50;;
62709;SDS011;48770;51.624;5.886;2022-08-05T12:03:45;0.73;;;0.40;;
62709;SDS011;48770;51.624;5.886;2022-08-05T12:06:13;0.57;;;0.30;;
62709;SDS011;48770;51.624;5.886;2022-08-05T12:08:49;1.13;;;0.50;;
62709;SDS011;48770;51.624;5.886;2022-08-05T12:11:22;0.73;;;0.32;;
62709;SDS011;48770;51.624;5.886;2022-08-05T12:13:53;1.27;;;0.57;;
62709;SDS011;48770;51.624;5.886;2022-08-05T12:16:27;0.30;;;0.20;;
62709;SDS011;48770;51.624;5.886;2022-08-05T12:18:56;1.70;;;0.40;;
62709;SDS011;48770;51.624;5.886;2022-08-05T12:23:56;0.85;;;0.50;;
62709;SDS011;48770;51.624;5.886;2022-08-05T12:26:30;0.98;;;0.38;;
62709;SDS011;48770;51.624;5.886;2022-08-05T12:29:09;0.47;;;0.30;;
62709;SDS011;48770;51.624;5.886;2022-08-05T12:31:48;0.98;;;0.50;;
62709;SDS011;48770;51.624;5.886;2022-08-05T12:34:16;0.73;;;0.30;;
62709;SDS011;48770;51.624;5.886;2022-08-05T12:36:43;1.92;;;0.40;;
62709;SDS011;48770;51.624;5.886;2022-08-05T12:39:10;0.70;;;0.45;;
62709;SDS011;48770;51.624;5.886;2022-08-05T12:41:37;1.35;;;0.40;;
62709;SDS011;48770;51.624;5.886;2022-08-05T12:44:08;0.80;;;0.45;;
62709;SDS011;48770;51.624;5.886;2022-08-05T12:46:37;0.85;;;0.43;;
62709;SDS011;48770;51.624;5.886;2022-08-05T12:49:05;1.25;;;0.32;;
62709;SDS011;48770;51.624;5.886;2022-08-05T12:51:31;0.77;;;0.40;;
62709;SDS011;48770;51.624;5.886;2022-08-05T12:54:26;1.02;;;0.40;;
62709;SDS011;48770;51.624;5.886;2022-08-05T12:59:22;1.60;;;0.50;;
62709;SDS011;48770;51.624;5.886;2022-08-05T13:01:55;0.90;;;0.32;;
62709;SDS011;48770;51.624;5.886;2022-08-05T13:04:24;1.25;;;0.38;;
62709;SDS011;48770;51.624;5.886;2022-08-05T13:06:50;2.38;;;0.38;;
62709;SDS011;48770;51.624;5.886;2022-08-05T13:09:16;1.05;;;0.40;;
62709;SDS011;48770;51.624;5.886;2022-08-05T13:11:41;0.82;;;0.40;;
62709;SDS011;48770;51.624;5.886;2022-08-05T13:14:20;1.48;;;0.40;;
62709;SDS011;48770;51.624;5.886;2022-08-05T13:16:47;0.60;;;0.40;;
62709;SDS011;48770;51.624;5.886;2022-08-05T13:19:21;1.13;;;0.20;;
62709;SDS011;48770;51.624;5.886;2022-08-05T13:21:48;0.60;;;0.40;;
62709;SDS011;48770;51.624;5.886;2022-08-05T13:24:13;1.17;;;0.22;;
62709;SDS011;48770;51.624;5.886;2022-08-05T13:26:41;1.92;;;0.43;;
62709;SDS011;48770;51.624;5.886;2022-08-05T13:29:08;0.50;;;0.20;;
62709;SDS011;48770;51.624;5.886;2022-08-05T13:31:33;0.60;;;0.20;;
62709;SDS011;48770;51.624;5.886;2022-08-05T13:33:59;0.52;;;0.15;;
62709;SDS011;48770;51.624;5.886;2022-08-05T13:36:24;2.15;;;0.52;;
62709;SDS011;48770;51.624;5.886;2022-08-05T13:38:49;1.55;;;0.50;;
62709;SDS011;48770;51.624;5.886;2022-08-05T13:41:15;3.08;;;0.60;;
62709;SDS011;48770;51.624;5.886;2022-08-05T13:43:40;0.55;;;0.30;;
62709;SDS011;48770;51.624;5.886;2022-08-05T13:46:07;1.35;;;0.20;;
62709;SDS011;48770;51.624;5.886;2022-08-05T13:48:33;0.75;;;0.32;;
62709;SDS011;48770;51.624;5.886;2022-08-05T13:51:09;0.73;;;0.20;;
62709;SDS011;48770;51.624;5.886;2022-08-05T13:53:37;0.50;;;0.30;;
62709;SDS011;48770;51.624;5.886;2022-08-05T13:56:03;1.33;;;0.40;;
62709;SDS011;48770;51.624;5.886;2022-08-05T13:58:28;0.95;;;0.20;;
62709;SDS011;48770;51.624;5.886;2022-08-05T14:00:54;0.40;;;0.20;;
62709;SDS011;48770;51.624;5.886;2022-08-05T14:03:20;1.83;;;0.20;;
62709;SDS011;48770;51.624;5.886;2022-08-05T14:05:46;0.60;;;0.13;;
62709;SDS011;48770;51.624;5.886;2022-08-05T14:08:11;1.20;;;0.28;;
62709;SDS011;48770;51.624;5.886;2022-08-05T14:10:37;0.38;;;0.20;;
62709;SDS011;48770;51.624;5.886;2022-08-05T14:13:03;0.47;;;0.20;;
62709;SDS011;48770;51.624;5.886;2022-08-05T14:15:31;1.42;;;0.65;;
62709;SDS011;48770;51.624;5.886;2022-08-05T14:17:56;1.13;;;0.20;;
62709;SDS011;48770;51.624;5.886;2022-08-05T14:20:21;0.45;;;0.25;;
62709;SDS011;48770;51.624;5.886;2022-08-05T14:22:47;0.68;;;0.30;;
62709;SDS011;48770;51.624;5.886;2022-08-05T14:25:12;1.27;;;0.43;;
62709;SDS011;48770;51.624;5.886;2022-08-05T14:27:38;1.98;;;0.20;;
62709;SDS011;48770;51.624;5.886;2022-08-05T14:30:04;2.00;;;0.20;;
62709;SDS011;48770;51.624;5.886;2022-08-05T14:32:30;1.23;;;0.28;;
62709;SDS011;48770;51.624;5.886;2022-08-05T14:34:56;0.70;;;0.20;;
62709;SDS011;48770;51.624;5.886;2022-08-05T14:37:21;1.50;;;0.30;;
62709;SDS011;48770;51.624;5.886;2022-08-05T14:39:47;0.70;;;0.10;;
62709;SDS011;48770;51.624;5.886;2022-08-05T14:42:13;0.47;;;0.20;;
62709;SDS011;48770;51.624;5.886;2022-08-05T14:44:39;1.23;;;0.22;;
62709;SDS011;48770;51.624;5.886;2022-08-05T14:47:04;1.02;;;0.20;;
62709;SDS011;48770;51.624;5.886;2022-08-05T14:49:30;0.50;;;0.22;;
62709;SDS011;48770;51.624;5.886;2022-08-05T14:51:55;0.65;;;0.10;;
62709;SDS011;48770;51.624;5.886;2022-08-05T14:54:20;0.82;;;0.22;;
62709;SDS011;48770;51.624;5.886;2022-08-05T14:56:46;1.00;;;0.28;;
62709;SDS011;48770;51.624;5.886;2022-08-05T14:59:11;0.60;;;0.30;;
62709;SDS011;48770;51.624;5.886;2022-08-05T15:01:36;0.93;;;0.28;;
62709;SDS011;48770;51.624;5.886;2022-08-05T15:04:02;2.88;;;0.35;;
62709;SDS011;48770;51.624;5.886;2022-08-05T15:06:27;0.30;;;0.10;;
62709;SDS011;48770;51.624;5.886;2022-08-05T15:08:54;0.52;;;0.28;;
62709;SDS011;48770;51.624;5.886;2022-08-05T15:11:20;0.98;;;0.20;;
62709;SDS011;48770;51.624;5.886;2022-08-05T15:13:46;0.32;;;0.10;;
62709;SDS011;48770;51.624;5.886;2022-08-05T15:16:12;0.70;;;0.20;;
62709;SDS011;48770;51.624;5.886;2022-08-05T15:18:37;0.40;;;0.20;;
62709;SDS011;48770;51.624;5.886;2022-08-05T15:21:02;0.20;;;0.20;;
62709;SDS011;48770;51.624;5.886;2022-08-05T15:23:28;0.85;;;0.20;;
62709;SDS011;48770;51.624;5.886;2022-08-05T15:25:53;0.57;;;0.30;;
62709;SDS011;48770;51.624;5.886;2022-08-05T15:28:18;1.75;;;0.30;;
62709;SDS011;48770;51.624;5.886;2022-08-05T15:30:44;0.40;;;0.20;;
62709;SDS011;48770;51.624;5.886;2022-08-05T15:33:09;0.47;;;0.15;;
62709;SDS011;48770;51.624;5.886;2022-08-05T15:35:35;0.38;;;0.38;;
62709;SDS011;48770;51.624;5.886;2022-08-05T15:38:00;2.83;;;0.28;;
62709;SDS011;48770;51.624;5.886;2022-08-05T15:40:26;0.20;;;0.20;;
62709;SDS011;48770;51.624;5.886;2022-08-05T15:42:51;1.52;;;0.30;;
62709;SDS011;48770;51.624;5.886;2022-08-05T15:45:17;0.60;;;0.20;;
62709;SDS011;48770;51.624;5.886;2022-08-05T15:47:42;1.05;;;0.30;;
62709;SDS011;48770;51.624;5.886;2022-08-05T15:50:09;1.63;;;0.20;;
62709;SDS011;48770;51.624;5.886;2022-08-05T15:52:36;1.00;;;0.20;;